sensor_id;sensor_type;location;lat;lon;timestamp;pressure;altitude;pressure_sealevel;temperature;humidity
66857;BME280;53766;50.280;19.160;2022-12-24T00:02:21;97378.00;;;16.83;51.79
66857;BME280;53766;50.280;19.160;2022-12-24T00:04:49;97380.06;;;16.81;51.70
66857;BME280;53766;50.280;19.160;2022-12-24T00:07:25;97372.06;;;16.81;51.61
66857;BME280;53766;50.280;19.160;2022-12-24T00:09:52;97367.78;;;16.80;51.71
66857;BME280;53766;50.280;19.160;2022-12-24T00:12:19;97367.78;;;16.80;51.66
66857;BME280;53766;50.280;19.160;2022-12-24T00:14:47;97365.13;;;16.80;51.70
66857;BME280;53766;50.280;19.160;2022-12-24T00:17:14;97357.13;;;16.80;51.68
66857;BME280;53766;50.280;19.160;2022-12-24T00:19:42;97359.00;;;16.80;51.61
66857;BME280;53766;50.280;19.160;2022-12-24T00:22:10;97364.47;;;16.78;51.49
66857;BME280;53766;50.280;19.160;2022-12-24T00:24:37;97355.50;;;16.79;51.51
66857;BME280;53766;50.280;19.160;2022-12-24T00:27:05;97352.25;;;16.77;51.48
66857;BME280;53766;50.280;19.160;2022-12-24T00:29:32;97353.84;;;16.78;51.57
66857;BME280;53766;50.280;19.160;2022-12-24T00:32:00;97351.44;;;16.77;51.52
66857;BME280;53766;50.280;19.160;2022-12-24T00:34:27;97330.97;;;16.77;51.59
66857;BME280;53766;50.280;19.160;2022-12-24T00:36:54;97327.72;;;16.75;51.34
66857;BME280;53766;50.280;19.160;2022-12-24T00:39:22;97320.34;;;16.77;51.38
66857;BME280;53766;50.280;19.160;2022-12-24T00:41:49;97327.72;;;16.75;51.43
66857;BME280;53766;50.280;19.160;2022-12-24T00:44:17;97325.06;;;16.75;51.43
66857;BME280;53766;50.280;19.160;2022-12-24T00:46:44;97326.91;;;16.75;51.43
66857;BME280;53766;50.280;19.160;2022-12-24T00:49:12;97310.13;;;16.74;51.37
66857;BME280;53766;50.280;19.160;2022-12-24T00:51:40;97309.31;;;16.74;51.54
66857;BME280;53766;50.280;19.160;2022-12-24T00:54:08;97308.50;;;16.73;51.31
66857;BME280;53766;50.280;19.160;2022-12-24T00:56:35;97303.19;;;16.73;51.70
66857;BME280;53766;50.280;19.160;2022-12-24T00:59:03;97306.88;;;16.72;51.29
66857;BME280;53766;50.280;19.160;2022-12-24T01:01:30;97313.81;;;16.73;51.39
66857;BME280;53766;50.280;19.160;2022-12-24T01:03:58;97316.47;;;16.73;51.27
66857;BME280;53766;50.280;19.160;2022-12-24T01:06:44;97312.78;;;16.74;51.15
66857;BME280;53766;50.280;19.160;2022-12-24T01:09:12;97315.44;;;16.74;51.22
66857;BME280;53766;50.280;19.160;2022-12-24T01:11:39;97321.81;;;16.73;51.17
66857;BME280;53766;50.280;19.160;2022-12-24T01:14:07;97316.28;;;16.75;51.34
66857;BME280;53766;50.280;19.160;2022-12-24T01:16:35;97317.69;;;16.77;51.27
66857;BME280;53766;50.280;19.160;2022-12-24T01:19:02;97313.38;;;16.76;51.23
66857;BME280;53766;50.280;19.160;2022-12-24T01:21:30;97309.09;;;16.75;51.50
66857;BME280;53766;50.280;19.160;2022-12-24T01:23:57;97303.56;;;16.77;51.43
66857;BME280;53766;50.280;19.160;2022-12-24T01:26:24;97315.22;;;16.76;51.31
66857;BME280;53766;50.280;19.160;2022-12-24T01:28:52;97319.75;;;16.75;51.43
66857;BME280;53766;50.280;19.160;2022-12-24T01:31:19;97330.97;;;16.77;51.36
66857;BME280;53766;50.280;19.160;2022-12-24T01:33:48;97328.31;;;16.77;51.45
66857;BME280;53766;50.280;19.160;2022-12-24T01:36:15;97335.25;;;16.78;51.33
66857;BME280;53766;50.280;19.160;2022-12-24T01:38:43;97330.97;;;16.77;51.23
66857;BME280;53766;50.280;19.160;2022-12-24T01:41:19;97337.91;;;16.78;51.36
66857;BME280;53766;50.280;19.160;2022-12-24T01:44:25;97326.44;;;16.78;51.48
66857;BME280;53766;50.280;19.160;2022-12-24T01:47:12;97309.69;;;16.77;51.45
66857;BME280;53766;50.280;19.160;2022-12-24T01:50:00;97302.75;;;16.76;51.54
66857;BME280;53766;50.280;19.160;2022-12-24T01:52:34;97309.69;;;16.77;51.35
66857;BME280;53766;50.280;19.160;2022-12-24T01:55:05;97305.63;;;16.75;51.45
66857;BME280;53766;50.280;19.160;2022-12-24T01:57:44;97296.63;;;16.76;51.41
66857;BME280;53766;50.280;19.160;2022-12-24T02:00:14;97299.28;;;16.76;51.52
66857;BME280;53766;50.280;19.160;2022-12-24T02:02:44;97295.81;;;16.75;51.45
66857;BME280;53766;50.280;19.160;2022-12-24T02:05:17;97299.47;;;16.74;51.32
66857;BME280;53766;50.280;19.160;2022-12-24T02:07:46;97296.63;;;16.76;51.46
66857;BME280;53766;50.280;19.160;2022-12-24T02:10:15;97295.00;;;16.75;51.52
66857;BME280;53766;50.280;19.160;2022-12-24T02:12:44;97292.34;;;16.75;51.36
66857;BME280;53766;50.280;19.160;2022-12-24T02:15:15;97282.72;;;16.74;51.37
66857;BME280;53766;50.280;19.160;2022-12-24T02:32:23;97296.81;;;16.74;51.16
66857;BME280;53766;50.280;19.160;2022-12-24T02:35:12;97305.03;;;16.73;51.32
66857;BME280;53766;50.280;19.160;2022-12-24T02:37:46;97296.81;;;16.74;51.27
66857;BME280;53766;50.280;19.160;2022-12-24T02:40:21;97291.75;;;16.73;51.15
66857;BME280;53766;50.280;19.160;2022-12-24T02:42:54;97287.25;;;16.73;51.26
66857;BME280;53766;50.280;19.160;2022-12-24T02:45:28;97286.44;;;16.73;51.16
66857;BME280;53766;50.280;19.160;2022-12-24T02:47:57;97290.91;;;16.72;51.11
66857;BME280;53766;50.280;19.160;2022-12-24T02:50:25;97293.56;;;16.72;51.17
66857;BME280;53766;50.280;19.160;2022-12-24T02:52:53;97294.63;;;16.71;51.34
66857;BME280;53766;50.280;19.160;2022-12-24T02:55:24;97294.63;;;16.71;51.25
66857;BME280;53766;50.280;19.160;2022-12-24T03:01:25;97302.59;;;16.71;51.13
66857;BME280;53766;50.280;19.160;2022-12-24T03:09:26;97313.22;;;16.71;51.17
66857;BME280;53766;50.280;19.160;2022-12-24T03:12:09;97308.97;;;16.70;50.91
66857;BME280;53766;50.280;19.160;2022-12-24T03:14:39;97326.53;;;16.71;51.15
66857;BME280;53766;50.280;19.160;2022-12-24T03:17:08;97324.06;;;16.70;51.13
66857;BME280;53766;50.280;19.160;2022-12-24T03:19:36;97331.03;;;16.71;51.02
66857;BME280;53766;50.280;19.160;2022-12-24T03:22:08;97330.22;;;16.70;51.08
66857;BME280;53766;50.280;19.160;2022-12-24T03:24:37;97343.53;;;16.70;51.01
66857;BME280;53766;50.280;19.160;2022-12-24T03:27:05;97347.78;;;16.71;51.10
66857;BME280;53766;50.280;19.160;2022-12-24T03:29:34;97346.19;;;16.70;51.19
66857;BME280;53766;50.280;19.160;2022-12-24T03:32:03;97341.66;;;16.71;51.05
66857;BME280;53766;50.280;19.160;2022-12-24T03:34:31;97337.59;;;16.68;50.97
66857;BME280;53766;50.280;19.160;2022-12-24T03:36:58;97337.59;;;16.68;51.01
66857;BME280;53766;50.280;19.160;2022-12-24T03:39:26;97344.53;;;16.69;51.07
66857;BME280;53766;50.280;19.160;2022-12-24T03:41:53;97342.94;;;16.68;50.91
66857;BME280;53766;50.280;19.160;2022-12-24T03:44:20;97339.22;;;16.69;50.97
66857;BME280;53766;50.280;19.160;2022-12-24T03:46:48;97342.94;;;16.68;51.06
66857;BME280;53766;50.280;19.160;2022-12-24T03:49:16;97344.53;;;16.69;50.95
66857;BME280;53766;50.280;19.160;2022-12-24T03:51:44;97345.59;;;16.68;50.97
66857;BME280;53766;50.280;19.160;2022-12-24T03:54:11;97340.28;;;16.68;50.97
66857;BME280;53766;50.280;19.160;2022-12-24T03:56:38;97347.41;;;16.67;50.79
66857;BME280;53766;50.280;19.160;2022-12-24T03:59:06;97346.59;;;16.67;50.95
66857;BME280;53766;50.280;19.160;2022-12-24T04:01:33;97342.94;;;16.68;50.93
66857;BME280;53766;50.280;19.160;2022-12-24T04:04:01;97342.94;;;16.68;50.93
66857;BME280;53766;50.280;19.160;2022-12-24T04:06:29;97339.44;;;16.67;50.86
66857;BME280;53766;50.280;19.160;2022-12-24T04:08:56;97334.34;;;16.66;50.82
66857;BME280;53766;50.280;19.160;2022-12-24T04:11:27;97339.69;;;16.66;50.82
66857;BME280;53766;50.280;19.160;2022-12-24T04:13:56;97340.47;;;16.66;50.89
66857;BME280;53766;50.280;19.160;2022-12-24T04:16:23;97335.38;;;16.65;51.01
66857;BME280;53766;50.280;19.160;2022-12-24T04:18:51;97338.84;;;16.65;50.77
66857;BME280;53766;50.280;19.160;2022-12-24T04:21:18;97331.09;;;16.64;50.89
66857;BME280;53766;50.280;19.160;2022-12-24T04:23:46;97325.78;;;16.64;50.91
66857;BME280;53766;50.280;19.160;2022-12-24T04:26:14;97333.75;;;16.64;50.77
66857;BME280;53766;50.280;19.160;2022-12-24T04:28:42;97327.41;;;16.65;50.76
66857;BME280;53766;50.280;19.160;2022-12-24T04:31:12;97332.72;;;16.65;50.65
66857;BME280;53766;50.280;19.160;2022-12-24T04:33:40;97332.72;;;16.65;51.14
66857;BME280;53766;50.280;19.160;2022-12-24T04:36:11;97330.25;;;16.63;50.76
66857;BME280;53766;50.280;19.160;2022-12-24T04:38:39;97337.44;;;16.63;50.72
66857;BME280;53766;50.280;19.160;2022-12-24T04:41:25;97331.09;;;16.64;50.89
66857;BME280;53766;50.280;19.160;2022-12-24T04:43:53;97336.41;;;16.64;50.72
66857;BME280;53766;50.280;19.160;2022-12-24T04:46:25;97347.06;;;16.64;50.81
66857;BME280;53766;50.280;19.160;2022-12-24T04:48:53;97343.34;;;16.65;50.72
66857;BME280;53766;50.280;19.160;2022-12-24T04:51:22;97343.34;;;16.65;50.69
66857;BME280;53766;50.280;19.160;2022-12-24T04:53:50;97344.16;;;16.65;50.60
66857;BME280;53766;50.280;19.160;2022-12-24T04:56:23;97341.72;;;16.64;50.68
66857;BME280;53766;50.280;19.160;2022-12-24T04:58:52;97338.25;;;16.63;50.66
66857;BME280;53766;50.280;19.160;2022-12-24T05:01:25;97348.88;;;16.63;50.65
66857;BME280;53766;50.280;19.160;2022-12-24T05:03:53;97345.41;;;16.63;50.66
66857;BME280;53766;50.280;19.160;2022-12-24T05:06:24;97343.81;;;16.62;50.68
66857;BME280;53766;50.280;19.160;2022-12-24T05:08:53;97338.47;;;16.62;50.51
66857;BME280;53766;50.280;19.160;2022-12-24T05:11:22;97343.81;;;16.62;50.68
66857;BME280;53766;50.280;19.160;2022-12-24T05:13:50;97356.03;;;16.63;50.58
66857;BME280;53766;50.280;19.160;2022-12-24T05:16:19;97353.84;;;16.60;50.63
66857;BME280;53766;50.280;19.160;2022-12-24T05:18:47;97352.78;;;16.61;50.73
66857;BME280;53766;50.280;19.160;2022-12-24T05:21:18;97358.94;;;16.61;50.75
66857;BME280;53766;50.280;19.160;2022-12-24T05:23:47;97359.97;;;16.60;50.93
66857;BME280;53766;50.280;19.160;2022-12-24T05:26:39;97362.16;;;16.63;51.00
66857;BME280;53766;50.280;19.160;2022-12-24T05:29:08;97359.50;;;16.63;51.00
66857;BME280;53766;50.280;19.160;2022-12-24T05:31:35;97358.50;;;16.64;51.10
66857;BME280;53766;50.280;19.160;2022-12-24T05:34:03;97364.63;;;16.65;51.14
66857;BME280;53766;50.280;19.160;2022-12-24T05:36:31;97367.28;;;16.65;50.89
66857;BME280;53766;50.280;19.160;2022-12-24T05:38:58;97372.59;;;16.65;51.13
66857;BME280;53766;50.280;19.160;2022-12-24T05:41:26;97371.56;;;16.66;51.00
66857;BME280;53766;50.280;19.160;2022-12-24T05:43:54;97371.56;;;16.66;50.94
66857;BME280;53766;50.280;19.160;2022-12-24T05:46:23;97374.22;;;16.66;50.92
66857;BME280;53766;50.280;19.160;2022-12-24T05:48:52;97369.94;;;16.65;51.05
66857;BME280;53766;50.280;19.160;2022-12-24T05:51:20;97372.59;;;16.65;50.85
66857;BME280;53766;50.280;19.160;2022-12-24T05:53:49;97376.88;;;16.66;50.81
66857;BME280;53766;50.280;19.160;2022-12-24T05:56:20;97372.59;;;16.65;50.78
66857;BME280;53766;50.280;19.160;2022-12-24T05:58:48;97385.88;;;16.65;50.79
66857;BME280;53766;50.280;19.160;2022-12-24T06:01:16;97391.19;;;16.65;50.59
66857;BME280;53766;50.280;19.160;2022-12-24T06:03:45;97381.63;;;16.64;50.73
66857;BME280;53766;50.280;19.160;2022-12-24T06:06:15;97386.69;;;16.65;50.59
66857;BME280;53766;50.280;19.160;2022-12-24T06:08:46;97387.72;;;16.64;50.50
66857;BME280;53766;50.280;19.160;2022-12-24T06:11:17;97386.09;;;16.63;50.53
66857;BME280;53766;50.280;19.160;2022-12-24T06:13:46;97391.41;;;16.63;50.39
66857;BME280;53766;50.280;19.160;2022-12-24T06:16:16;97399.38;;;16.63;50.58
66857;BME280;53766;50.280;19.160;2022-12-24T06:18:44;97406.56;;;16.63;50.39
66857;BME280;53766;50.280;19.160;2022-12-24T06:21:12;97409.22;;;16.63;50.30
66857;BME280;53766;50.280;19.160;2022-12-24T06:23:41;97417.19;;;16.63;50.29
66857;BME280;53766;50.280;19.160;2022-12-24T06:26:15;97412.91;;;16.62;50.30
66857;BME280;53766;50.280;19.160;2022-12-24T06:28:43;97421.50;;;16.64;50.27
66857;BME280;53766;50.280;19.160;2022-12-24T06:31:13;97416.38;;;16.62;50.14
66857;BME280;53766;50.280;19.160;2022-12-24T06:33:41;97401.22;;;16.63;50.19
66857;BME280;53766;50.280;19.160;2022-12-24T06:36:13;97407.59;;;16.62;50.12
66857;BME280;53766;50.280;19.160;2022-12-24T06:38:45;97420.28;;;16.60;50.40
66857;BME280;53766;50.280;19.160;2022-12-24T06:41:13;97414.97;;;16.60;50.35
66857;BME280;53766;50.280;19.160;2022-12-24T06:43:49;97420.28;;;16.60;50.40
66857;BME280;53766;50.280;19.160;2022-12-24T06:46:17;97422.94;;;16.60;50.44
66857;BME280;53766;50.280;19.160;2022-12-24T06:48:46;97424.78;;;16.59;50.53
66857;BME280;53766;50.280;19.160;2022-12-24T06:51:15;97423.97;;;16.59;50.52
66857;BME280;53766;50.280;19.160;2022-12-24T06:53:46;97423.97;;;16.59;50.47
66857;BME280;53766;50.280;19.160;2022-12-24T06:56:14;97434.59;;;16.59;50.36
66857;BME280;53766;50.280;19.160;2022-12-24T06:58:42;97431.94;;;16.59;50.54
66857;BME280;53766;50.280;19.160;2022-12-24T07:01:12;97431.94;;;16.59;50.56
66857;BME280;53766;50.280;19.160;2022-12-24T07:03:40;97432.97;;;16.58;50.32
66857;BME280;53766;50.280;19.160;2022-12-24T07:06:19;97438.28;;;16.58;50.37
66857;BME280;53766;50.280;19.160;2022-12-24T07:08:48;97440.97;;;16.58;50.33
66857;BME280;53766;50.280;19.160;2022-12-24T07:11:16;97444.63;;;16.57;50.55
66857;BME280;53766;50.280;19.160;2022-12-24T07:13:45;97450.53;;;16.59;50.54
66857;BME280;53766;50.280;19.160;2022-12-24T07:16:13;97460.38;;;16.58;50.64
66857;BME280;53766;50.280;19.160;2022-12-24T07:18:40;97445.22;;;16.59;50.64
66857;BME280;53766;50.280;19.160;2022-12-24T07:21:08;97455.25;;;16.57;50.58
66857;BME280;53766;50.280;19.160;2022-12-24T07:23:35;97450.78;;;16.57;50.63
66857;BME280;53766;50.280;19.160;2022-12-24T07:26:04;97448.94;;;16.58;50.58
66857;BME280;53766;50.280;19.160;2022-12-24T07:28:32;97460.56;;;16.57;50.59
66857;BME280;53766;50.280;19.160;2022-12-24T07:31:00;97463.22;;;16.57;50.55
66857;BME280;53766;50.280;19.160;2022-12-24T07:33:27;97465.09;;;16.56;50.41
66857;BME280;53766;50.280;19.160;2022-12-24T07:36:03;97460.81;;;16.55;50.37
66857;BME280;53766;50.280;19.160;2022-12-24T07:38:32;97465.09;;;16.56;50.55
66857;BME280;53766;50.280;19.160;2022-12-24T07:40:59;97464.28;;;16.56;50.65
66857;BME280;53766;50.280;19.160;2022-12-24T07:43:27;97468.56;;;16.57;50.75
66857;BME280;53766;50.280;19.160;2022-12-24T07:45:57;97477.13;;;16.59;50.83
66857;BME280;53766;50.280;19.160;2022-12-24T07:48:27;97463.22;;;16.57;50.80
66857;BME280;53766;50.280;19.160;2022-12-24T07:50:55;97471.00;;;16.58;50.86
66857;BME280;53766;50.280;19.160;2022-12-24T07:53:25;97478.16;;;16.58;50.80
66857;BME280;53766;50.280;19.160;2022-12-24T07:55:53;97475.50;;;16.58;51.00
66857;BME280;53766;50.280;19.160;2022-12-24T07:58:21;97481.63;;;16.58;51.19
66857;BME280;53766;50.280;19.160;2022-12-24T08:00:54;97493.06;;;16.59;51.06
66857;BME280;53766;50.280;19.160;2022-12-24T08:03:22;97498.38;;;16.59;51.15
66857;BME280;53766;50.280;19.160;2022-12-24T08:05:50;97499.22;;;16.59;51.21
66857;BME280;53766;50.280;19.160;2022-12-24T08:08:19;97501.66;;;16.61;51.25
66857;BME280;53766;50.280;19.160;2022-12-24T08:10:46;97494.72;;;16.60;51.08
66857;BME280;53766;50.280;19.160;2022-12-24T08:13:14;97510.66;;;16.60;51.12
66857;BME280;53766;50.280;19.160;2022-12-24T08:15:42;97500.84;;;16.60;51.12
66857;BME280;53766;50.280;19.160;2022-12-24T08:18:10;97500.03;;;16.60;51.12
66857;BME280;53766;50.280;19.160;2022-12-24T08:20:39;97500.84;;;16.60;51.09
66857;BME280;53766;50.280;19.160;2022-12-24T08:23:07;97503.72;;;16.59;50.98
66857;BME280;53766;50.280;19.160;2022-12-24T08:25:35;97522.09;;;16.60;50.79
66857;BME280;53766;50.280;19.160;2022-12-24T08:28:03;97523.75;;;16.61;50.88
66857;BME280;53766;50.280;19.160;2022-12-24T08:30:31;97519.25;;;16.62;50.90
66857;BME280;53766;50.280;19.160;2022-12-24T08:32:58;97511.47;;;16.60;50.88
66857;BME280;53766;50.280;19.160;2022-12-24T08:35:26;97533.56;;;16.61;50.83
66857;BME280;53766;50.280;19.160;2022-12-24T08:37:54;97522.91;;;16.61;50.78
66857;BME280;53766;50.280;19.160;2022-12-24T08:40:21;97532.94;;;16.59;50.77
66857;BME280;53766;50.280;19.160;2022-12-24T08:42:48;97532.75;;;16.60;50.71
66857;BME280;53766;50.280;19.160;2022-12-24T08:45:16;97540.94;;;16.59;50.88
66857;BME280;53766;50.280;19.160;2022-12-24T08:47:44;97542.56;;;16.60;50.96
66857;BME280;53766;50.280;19.160;2022-12-24T08:50:11;97540.50;;;16.62;51.22
66857;BME280;53766;50.280;19.160;2022-12-24T08:52:39;97549.50;;;16.61;51.19
66857;BME280;53766;50.280;19.160;2022-12-24T08:55:07;97546.84;;;16.61;51.24
66857;BME280;53766;50.280;19.160;2022-12-24T08:57:37;97549.94;;;16.58;50.98
66857;BME280;53766;50.280;19.160;2022-12-24T09:00:05;97558.94;;;16.57;50.67
66857;BME280;53766;50.280;19.160;2022-12-24T09:02:33;97558.94;;;16.57;50.64
66857;BME280;53766;50.280;19.160;2022-12-24T09:05:01;97562.63;;;16.56;50.70
66857;BME280;53766;50.280;19.160;2022-12-24T09:07:28;97567.34;;;16.54;50.75
66857;BME280;53766;50.280;19.160;2022-12-24T09:09:55;97570.00;;;16.54;50.73
66857;BME280;53766;50.280;19.160;2022-12-24T09:12:23;97572.66;;;16.54;50.68
66857;BME280;53766;50.280;19.160;2022-12-24T09:14:51;97573.69;;;16.53;50.74
66857;BME280;53766;50.280;19.160;2022-12-24T09:17:29;97576.94;;;16.55;50.70
66857;BME280;53766;50.280;19.160;2022-12-24T09:19:56;97580.44;;;16.55;50.54
66857;BME280;53766;50.280;19.160;2022-12-24T09:22:24;97567.94;;;16.56;50.46
66857;BME280;53766;50.280;19.160;2022-12-24T09:24:54;97577.78;;;16.55;50.44
66857;BME280;53766;50.280;19.160;2022-12-24T09:27:22;97577.78;;;16.55;50.49
66857;BME280;53766;50.280;19.160;2022-12-24T09:29:49;97573.25;;;16.56;50.68
66857;BME280;53766;50.280;19.160;2022-12-24T09:32:17;97584.50;;;16.58;50.69
66857;BME280;53766;50.280;19.160;2022-12-24T09:34:44;97580.59;;;16.60;50.90
66857;BME280;53766;50.280;19.160;2022-12-24T09:37:12;97597.34;;;16.61;50.90
66857;BME280;53766;50.280;19.160;2022-12-24T09:39:40;97593.06;;;16.60;50.96
66857;BME280;53766;50.280;19.160;2022-12-24T09:42:59;97587.97;;;16.58;50.96
66857;BME280;53766;50.280;19.160;2022-12-24T09:45:34;97590.03;;;16.56;50.96
66857;BME280;53766;50.280;19.160;2022-12-24T09:48:12;97590.63;;;16.58;51.28
66857;BME280;53766;50.280;19.160;2022-12-24T09:50:54;97593.28;;;16.58;51.09
66857;BME280;53766;50.280;19.160;2022-12-24T09:53:25;97592.47;;;16.58;51.06
66857;BME280;53766;50.280;19.160;2022-12-24T09:56:01;97596.38;;;16.55;51.11
66857;BME280;53766;50.280;19.160;2022-12-24T09:58:42;97600.66;;;16.56;51.11
66857;BME280;53766;50.280;19.160;2022-12-24T10:01:13;97598.19;;;16.55;51.07
66857;BME280;53766;50.280;19.160;2022-12-24T10:03:42;97598.19;;;16.55;51.30
66857;BME280;53766;50.280;19.160;2022-12-24T10:06:19;97607.22;;;16.54;51.35
66857;BME280;53766;50.280;19.160;2022-12-24T10:09:12;97609.06;;;16.53;51.43
66857;BME280;53766;50.280;19.160;2022-12-24T10:11:50;97616.22;;;16.53;51.25
66857;BME280;53766;50.280;19.160;2022-12-24T10:17:14;97626.84;;;16.53;51.23
66857;BME280;53766;50.280;19.160;2022-12-24T10:25:17;97646.47;;;16.52;51.21
66857;BME280;53766;50.280;19.160;2022-12-24T10:27:47;97639.09;;;16.54;51.22
66857;BME280;53766;50.280;19.160;2022-12-24T10:30:17;97648.94;;;16.53;51.40
66857;BME280;53766;50.280;19.160;2022-12-24T10:32:50;97646.47;;;16.52;51.29
66857;BME280;53766;50.280;19.160;2022-12-24T10:35:26;97653.44;;;16.53;51.21
66857;BME280;53766;50.280;19.160;2022-12-24T10:37:55;97666.13;;;16.51;51.20
66857;BME280;53766;50.280;19.160;2022-12-24T10:40:41;97661.63;;;16.51;51.36
66857;BME280;53766;50.280;19.160;2022-12-24T10:43:17;97671.44;;;16.51;51.29
66857;BME280;53766;50.280;19.160;2022-12-24T10:46:18;97674.09;;;16.51;51.42
66857;BME280;53766;50.280;19.160;2022-12-24T10:51:48;97683.09;;;16.50;51.51
66857;BME280;53766;50.280;19.160;2022-12-24T10:54:20;97682.88;;;16.51;51.77
66857;BME280;53766;50.280;19.160;2022-12-24T10:56:58;97685.75;;;16.50;51.59
66857;BME280;53766;50.280;19.160;2022-12-24T11:01:58;97684.13;;;16.49;51.96
66857;BME280;53766;50.280;19.160;2022-12-24T11:04:29;97697.41;;;16.49;52.09
66857;BME280;53766;50.280;19.160;2022-12-24T11:07:03;97706.19;;;16.49;52.21
66857;BME280;53766;50.280;19.160;2022-12-24T11:09:33;97700.06;;;16.49;52.40
66857;BME280;53766;50.280;19.160;2022-12-24T11:12:03;97708.03;;;16.49;52.25
66857;BME280;53766;50.280;19.160;2022-12-24T11:14:38;97721.34;;;16.49;52.36
66857;BME280;53766;50.280;19.160;2022-12-24T11:17:06;97728.47;;;16.48;52.51
66857;BME280;53766;50.280;19.160;2022-12-24T11:19:47;97720.50;;;16.48;52.32
66857;BME280;53766;50.280;19.160;2022-12-24T11:22:31;97730.31;;;16.48;52.43
66857;BME280;53766;50.280;19.160;2022-12-24T11:25:29;97719.69;;;16.48;52.51
66857;BME280;53766;50.280;19.160;2022-12-24T11:28:30;97730.31;;;16.48;52.49
66857;BME280;53766;50.280;19.160;2022-12-24T11:31:19;97744.66;;;16.47;52.25
66857;BME280;53766;50.280;19.160;2022-12-24T11:33:50;97752.63;;;16.47;52.75
66857;BME280;53766;50.280;19.160;2022-12-24T11:36:22;97758.94;;;16.45;52.43
66857;BME280;53766;50.280;19.160;2022-12-24T11:38:57;97758.13;;;16.45;52.52
66857;BME280;53766;50.280;19.160;2022-12-24T11:41:35;97750.34;;;16.43;52.38
66857;BME280;53766;50.280;19.160;2022-12-24T11:44:04;97759.38;;;16.42;52.55
66857;BME280;53766;50.280;19.160;2022-12-24T11:46:44;97777.97;;;16.42;52.38
66857;BME280;53766;50.280;19.160;2022-12-24T11:49:23;97776.13;;;16.43;52.52
66857;BME280;53766;50.280;19.160;2022-12-24T11:52:15;97779.81;;;16.42;52.61
66857;BME280;53766;50.280;19.160;2022-12-24T11:55:06;97774.50;;;16.42;52.65
66857;BME280;53766;50.280;19.160;2022-12-24T11:57:51;97778.16;;;16.41;52.56
66857;BME280;53766;50.280;19.160;2022-12-24T12:00:20;97785.13;;;16.42;52.50
66857;BME280;53766;50.280;19.160;2022-12-24T12:02:48;97792.28;;;16.41;52.43
66857;BME280;53766;50.280;19.160;2022-12-24T12:05:25;97799.63;;;16.39;52.61
66857;BME280;53766;50.280;19.160;2022-12-24T12:07:57;97799.63;;;16.39;52.39
66857;BME280;53766;50.280;19.160;2022-12-24T12:10:36;97800.66;;;16.38;52.38
66857;BME280;53766;50.280;19.160;2022-12-24T12:13:12;97800.66;;;16.38;52.36
66857;BME280;53766;50.280;19.160;2022-12-24T12:16:05;97809.66;;;16.37;52.28
66857;BME280;53766;50.280;19.160;2022-12-24T12:18:43;97823.97;;;16.36;52.38
66857;BME280;53766;50.280;19.160;2022-12-24T12:21:16;97823.97;;;16.36;52.29
66857;BME280;53766;50.280;19.160;2022-12-24T12:26:29;97837.88;;;16.38;52.06
66857;BME280;53766;50.280;19.160;2022-12-24T12:29:04;97833.56;;;16.37;52.25
66857;BME280;53766;50.280;19.160;2022-12-24T12:31:48;97843.19;;;16.38;52.20
66857;BME280;53766;50.280;19.160;2022-12-24T12:34:23;97854.25;;;16.42;51.97
66857;BME280;53766;50.280;19.160;2022-12-24T12:36:59;97848.50;;;16.38;52.13
66857;BME280;53766;50.280;19.160;2022-12-24T12:39:30;97855.88;;;16.36;52.15
66857;BME280;53766;50.280;19.160;2022-12-24T12:42:17;97856.91;;;16.35;52.01
66857;BME280;53766;50.280;19.160;2022-12-24T12:55:56;97880.19;;;16.33;52.11
66857;BME280;53766;50.280;19.160;2022-12-24T13:01:49;97881.22;;;16.32;52.17
66857;BME280;53766;50.280;19.160;2022-12-24T13:07:50;97895.53;;;16.31;52.12
66857;BME280;53766;50.280;19.160;2022-12-24T13:18:49;97918.00;;;16.29;52.17
66857;BME280;53766;50.280;19.160;2022-12-24T13:21:23;97925.16;;;16.28;52.57
66857;BME280;53766;50.280;19.160;2022-12-24T13:24:24;97924.34;;;16.28;53.38
66857;BME280;53766;50.280;19.160;2022-12-24T13:27:05;97931.50;;;16.27;53.78
66857;BME280;53766;50.280;19.160;2022-12-24T13:29:59;97933.13;;;16.28;53.68
66857;BME280;53766;50.280;19.160;2022-12-24T13:32:38;97950.72;;;16.29;53.62
66857;BME280;53766;50.280;19.160;2022-12-24T13:37:47;97955.41;;;16.27;53.69
66857;BME280;53766;50.280;19.160;2022-12-24T13:40:25;97959.69;;;16.28;53.69
66857;BME280;53766;50.280;19.160;2022-12-24T13:50:49;97976.06;;;16.25;53.75
66857;BME280;53766;50.280;19.160;2022-12-24T13:56:18;97998.31;;;16.24;53.67
66857;BME280;53766;50.280;19.160;2022-12-24T13:58:55;98000.16;;;16.23;53.63
66857;BME280;53766;50.280;19.160;2022-12-24T14:01:39;97999.34;;;16.23;53.77
66857;BME280;53766;50.280;19.160;2022-12-24T14:04:09;98003.84;;;16.22;53.76
66857;BME280;53766;50.280;19.160;2022-12-24T14:06:49;98012.00;;;16.21;53.53
66857;BME280;53766;50.280;19.160;2022-12-24T14:09:20;98007.50;;;16.21;53.78
66857;BME280;53766;50.280;19.160;2022-12-24T14:14:33;98022.63;;;16.21;53.53
66857;BME280;53766;50.280;19.160;2022-12-24T14:17:03;98026.28;;;16.20;53.81
66857;BME280;53766;50.280;19.160;2022-12-24T14:24:43;98035.31;;;16.19;53.55
66857;BME280;53766;50.280;19.160;2022-12-24T14:27:23;98052.88;;;16.20;53.40
66857;BME280;53766;50.280;19.160;2022-12-24T14:32:38;98058.19;;;16.20;53.48
66857;BME280;53766;50.280;19.160;2022-12-24T14:37:51;98058.41;;;16.18;53.44
66857;BME280;53766;50.280;19.160;2022-12-24T14:40:34;98069.22;;;16.17;53.33
66857;BME280;53766;50.280;19.160;2022-12-24T14:43:13;98076.19;;;16.18;53.48
66857;BME280;53766;50.280;19.160;2022-12-24T14:48:47;98087.81;;;16.17;53.47
66857;BME280;53766;50.280;19.160;2022-12-24T14:51:32;98096.59;;;16.17;53.25